sensor_id;sensor_type;location;lat;lon;timestamp;pressure;altitude;pressure_sealevel;temperature;humidity
31225;BME280;17847;31.524;74.366;2022-07-29T00:01:47;97910.63;;;29.98;80.53
31225;BME280;17847;31.524;74.366;2022-07-29T00:04:43;97912.66;;;29.66;80.86
31225;BME280;17847;31.524;74.366;2022-07-29T00:07:18;97914.47;;;29.58;81.24
31225;BME280;17847;31.524;74.366;2022-07-29T00:10:15;97916.31;;;29.70;80.97
31225;BME280;17847;31.524;74.366;2022-07-29T00:12:50;97926.69;;;29.73;80.66
31225;BME280;17847;31.524;74.366;2022-07-29T00:15:46;97920.44;;;29.60;81.14
31225;BME280;17847;31.524;74.366;2022-07-29T00:18:27;97919.25;;;29.61;81.38
31225;BME280;17847;31.524;74.366;2022-07-29T00:21:16;97915.50;;;29.70;81.30
31225;BME280;17847;31.524;74.366;2022-07-29T00:23:57;97913.00;;;29.64;81.36
31225;BME280;17847;31.524;74.366;2022-07-29T00:26:46;97909.06;;;29.65;81.55
31225;BME280;17847;31.524;74.366;2022-07-29T00:29:28;97909.34;;;29.76;81.36
31225;BME280;17847;31.524;74.366;2022-07-29T00:32:17;97912.94;;;29.61;81.26
31225;BME280;17847;31.524;74.366;2022-07-29T00:34:59;97917.84;;;29.52;81.98
31225;BME280;17847;31.524;74.366;2022-07-29T00:38:06;97912.22;;;29.64;81.30
31225;BME280;17847;31.524;74.366;2022-07-29T00:40:48;97913.00;;;29.80;81.37
31225;BME280;17847;31.524;74.366;2022-07-29T00:43:37;97917.53;;;29.89;80.81
31225;BME280;17847;31.524;74.366;2022-07-29T00:46:19;97920.38;;;29.92;81.06
31225;BME280;17847;31.524;74.366;2022-07-29T00:49:08;97922.75;;;29.58;81.75
31225;BME280;17847;31.524;74.366;2022-07-29T00:51:50;97927.19;;;29.63;81.50
31225;BME280;17847;31.524;74.366;2022-07-29T00:54:39;97922.06;;;29.97;80.74
31225;BME280;17847;31.524;74.366;2022-07-29T00:57:21;97926.28;;;29.91;80.47
31225;BME280;17847;31.524;74.366;2022-07-29T01:00:13;97926.69;;;29.41;82.68
31225;BME280;17847;31.524;74.366;2022-07-29T01:02:55;97929.50;;;29.77;81.81
31225;BME280;17847;31.524;74.366;2022-07-29T01:05:45;97930.34;;;29.97;80.97
31225;BME280;17847;31.524;74.366;2022-07-29T01:08:27;97930.13;;;30.05;80.42
31225;BME280;17847;31.524;74.366;2022-07-29T01:11:23;97925.78;;;30.24;79.97
31225;BME280;17847;31.524;74.366;2022-07-29T01:14:12;97934.34;;;30.35;79.64
31225;BME280;17847;31.524;74.366;2022-07-29T01:30:03;97927.06;;;29.91;80.84
31225;BME280;17847;31.524;74.366;2022-07-29T01:32:53;97935.19;;;30.19;79.47
31225;BME280;17847;31.524;74.366;2022-07-29T01:35:43;97925.16;;;30.31;79.51
31225;BME280;17847;31.524;74.366;2022-07-29T01:38:25;97934.97;;;30.28;78.92
31225;BME280;17847;31.524;74.366;2022-07-29T01:41:23;97930.78;;;30.54;78.44
31225;BME280;17847;31.524;74.366;2022-07-29T01:44:07;97941.97;;;30.22;79.42
31225;BME280;17847;31.524;74.366;2022-07-29T01:47:10;97950.16;;;29.99;79.78
31225;BME280;17847;31.524;74.366;2022-07-29T01:49:56;97952.63;;;30.39;78.73
31225;BME280;17847;31.524;74.366;2022-07-29T01:52:56;97967.28;;;30.59;78.36
31225;BME280;17847;31.524;74.366;2022-07-29T01:55:43;97955.75;;;30.38;78.17
31225;BME280;17847;31.524;74.366;2022-07-29T01:58:32;97971.50;;;30.53;78.03
31225;BME280;17847;31.524;74.366;2022-07-29T02:01:17;97974.34;;;30.37;78.15
31225;BME280;17847;31.524;74.366;2022-07-29T02:04:15;97980.16;;;29.97;79.36
31225;BME280;17847;31.524;74.366;2022-07-29T02:07:05;97989.50;;;30.08;79.30
31225;BME280;17847;31.524;74.366;2022-07-29T02:10:02;97991.47;;;30.43;78.25
31225;BME280;17847;31.524;74.366;2022-07-29T02:12:39;97995.38;;;30.42;78.31
31225;BME280;17847;31.524;74.366;2022-07-29T02:15:35;97990.56;;;30.78;77.35
31225;BME280;17847;31.524;74.366;2022-07-29T02:18:15;97994.03;;;30.91;76.97
31225;BME280;17847;31.524;74.366;2022-07-29T02:21:13;98001.66;;;30.78;76.93
31225;BME280;17847;31.524;74.366;2022-07-29T02:23:59;97999.63;;;30.75;77.74
31225;BME280;17847;31.524;74.366;2022-07-29T02:26:50;98003.19;;;30.95;76.86
31225;BME280;17847;31.524;74.366;2022-07-29T02:29:34;98009.38;;;30.69;77.40
31225;BME280;17847;31.524;74.366;2022-07-29T02:32:24;98017.25;;;31.06;76.85
31225;BME280;17847;31.524;74.366;2022-07-29T02:35:09;98020.75;;;30.83;77.52
31225;BME280;17847;31.524;74.366;2022-07-29T02:37:58;98030.97;;;30.59;77.36
31225;BME280;17847;31.524;74.366;2022-07-29T02:41:01;98026.16;;;30.76;77.55
31225;BME280;17847;31.524;74.366;2022-07-29T02:43:56;98029.06;;;31.02;76.81
31225;BME280;17847;31.524;74.366;2022-07-29T02:50:00;98039.38;;;31.25;75.30
31225;BME280;17847;31.524;74.366;2022-07-29T02:56:11;98045.44;;;31.31;75.53
31225;BME280;17847;31.524;74.366;2022-07-29T02:58:57;98041.63;;;30.96;76.55
31225;BME280;17847;31.524;74.366;2022-07-29T03:01:55;98048.31;;;31.15;76.36
31225;BME280;17847;31.524;74.366;2022-07-29T03:04:36;98045.69;;;31.02;76.77
31225;BME280;17847;31.524;74.366;2022-07-29T03:07:29;98060.53;;;31.33;76.03
31225;BME280;17847;31.524;74.366;2022-07-29T03:10:06;98055.59;;;31.23;75.94
31225;BME280;17847;31.524;74.366;2022-07-29T03:13:02;98059.94;;;31.44;75.40
31225;BME280;17847;31.524;74.366;2022-07-29T03:15:56;98069.97;;;30.90;76.86
31225;BME280;17847;31.524;74.366;2022-07-29T03:18:39;98062.25;;;30.99;76.47
31225;BME280;17847;31.524;74.366;2022-07-29T03:21:35;98068.34;;;31.28;76.03
31225;BME280;17847;31.524;74.366;2022-07-29T03:24:35;98076.25;;;31.06;76.47
31225;BME280;17847;31.524;74.366;2022-07-29T03:27:26;98070.59;;;31.22;76.36
31225;BME280;17847;31.524;74.366;2022-07-29T03:30:09;98080.84;;;31.18;75.29
31225;BME280;17847;31.524;74.366;2022-07-29T03:33:02;98080.84;;;31.18;75.98
31225;BME280;17847;31.524;74.366;2022-07-29T03:35:46;98075.44;;;31.25;76.14
31225;BME280;17847;31.524;74.366;2022-07-29T03:38:42;98080.75;;;31.14;76.05
31225;BME280;17847;31.524;74.366;2022-07-29T03:41:26;98084.03;;;30.81;76.90
31225;BME280;17847;31.524;74.366;2022-07-29T03:44:16;98082.56;;;30.87;77.26
31225;BME280;17847;31.524;74.366;2022-07-29T03:47:00;98084.19;;;30.88;77.27
31225;BME280;17847;31.524;74.366;2022-07-29T03:50:04;98091.31;;;30.89;77.24
31225;BME280;17847;31.524;74.366;2022-07-29T03:53:01;98082.09;;;31.20;75.52
31225;BME280;17847;31.524;74.366;2022-07-29T03:55:41;98091.22;;;31.01;76.61
31225;BME280;17847;31.524;74.366;2022-07-29T03:58:37;98092.25;;;31.13;76.46
31225;BME280;17847;31.524;74.366;2022-07-29T04:01:21;98099.72;;;31.12;76.55
31225;BME280;17847;31.524;74.366;2022-07-29T04:04:10;98103.53;;;30.69;77.62
31225;BME280;17847;31.524;74.366;2022-07-29T04:06:52;98123.72;;;31.05;76.90
31225;BME280;17847;31.524;74.366;2022-07-29T04:09:41;98121.53;;;31.14;76.21
31225;BME280;17847;31.524;74.366;2022-07-29T04:12:23;98113.81;;;31.23;75.60
31225;BME280;17847;31.524;74.366;2022-07-29T04:15:19;98115.75;;;31.42;75.65
31225;BME280;17847;31.524;74.366;2022-07-29T04:17:55;98124.97;;;31.27;75.91
31225;BME280;17847;31.524;74.366;2022-07-29T04:20:50;98126.66;;;30.76;76.53
31225;BME280;17847;31.524;74.366;2022-07-29T04:23:25;98125.94;;;31.15;75.87
31225;BME280;17847;31.524;74.366;2022-07-29T04:26:32;98120.22;;;31.47;74.63
31225;BME280;17847;31.524;74.366;2022-07-29T04:29:08;98116.47;;;31.58;74.29
31225;BME280;17847;31.524;74.366;2022-07-29T04:32:04;98115.66;;;31.58;74.07
31225;BME280;17847;31.524;74.366;2022-07-29T04:34:46;98112.81;;;31.54;74.12
31225;BME280;17847;31.524;74.366;2022-07-29T04:37:42;98108.34;;;31.69;73.86
31225;BME280;17847;31.524;74.366;2022-07-29T04:40:36;98110.25;;;31.65;74.20
31225;BME280;17847;31.524;74.366;2022-07-29T04:43:31;98106.69;;;31.88;73.99
31225;BME280;17847;31.524;74.366;2022-07-29T04:46:09;98108.81;;;31.98;73.21
31225;BME280;17847;31.524;74.366;2022-07-29T04:49:20;98111.44;;;32.10;72.74
31225;BME280;17847;31.524;74.366;2022-07-29T04:52:03;98117.63;;;32.27;71.82
31225;BME280;17847;31.524;74.366;2022-07-29T04:54:51;98111.97;;;32.46;71.30
31225;BME280;17847;31.524;74.366;2022-07-29T04:57:33;98113.25;;;31.79;71.38
31225;BME280;17847;31.524;74.366;2022-07-29T05:00:22;98118.78;;;31.99;72.59
31225;BME280;17847;31.524;74.366;2022-07-29T05:03:06;98119.50;;;31.96;72.11
31225;BME280;17847;31.524;74.366;2022-07-29T05:05:55;98116.78;;;32.23;72.03
31225;BME280;17847;31.524;74.366;2022-07-29T05:08:38;98118.91;;;32.06;71.67
31225;BME280;17847;31.524;74.366;2022-07-29T05:11:26;98126.56;;;32.39;71.67
31225;BME280;17847;31.524;74.366;2022-07-29T05:14:15;98117.00;;;32.10;70.81
31225;BME280;17847;31.524;74.366;2022-07-29T05:17:10;98127.34;;;32.13;71.92
31225;BME280;17847;31.524;74.366;2022-07-29T05:20:05;98122.75;;;32.25;70.51
31225;BME280;17847;31.524;74.366;2022-07-29T05:22:41;98128.44;;;32.32;70.52
31225;BME280;17847;31.524;74.366;2022-07-29T05:25:37;98125.53;;;32.78;69.73
31225;BME280;17847;31.524;74.366;2022-07-29T05:28:17;98125.97;;;32.27;71.23
31225;BME280;17847;31.524;74.366;2022-07-29T05:35:39;98113.06;;;32.65;69.29
31225;BME280;17847;31.524;74.366;2022-07-29T05:38:14;98112.38;;;33.05;69.79
31225;BME280;17847;31.524;74.366;2022-07-29T05:41:10;98118.13;;;33.16;70.49
31225;BME280;17847;31.524;74.366;2022-07-29T05:43:45;98105.34;;;33.11;69.45
31225;BME280;17847;31.524;74.366;2022-07-29T05:46:41;98102.41;;;33.31;68.95
31225;BME280;17847;31.524;74.366;2022-07-29T05:49:22;98103.25;;;33.05;68.67
31225;BME280;17847;31.524;74.366;2022-07-29T05:52:11;98089.03;;;33.47;68.77
31225;BME280;17847;31.524;74.366;2022-07-29T05:54:53;98087.53;;;33.53;69.11
31225;BME280;17847;31.524;74.366;2022-07-29T05:57:43;98089.44;;;33.49;68.35
31225;BME280;17847;31.524;74.366;2022-07-29T06:00:20;98085.41;;;33.09;68.98
31225;BME280;17847;31.524;74.366;2022-07-29T06:03:16;98088.31;;;32.86;68.25
31225;BME280;17847;31.524;74.366;2022-07-29T06:05:58;98071.50;;;33.43;68.81
31225;BME280;17847;31.524;74.366;2022-07-29T06:08:48;98065.47;;;33.34;67.01
31225;BME280;17847;31.524;74.366;2022-07-29T06:11:30;98060.09;;;34.00;65.37
31225;BME280;17847;31.524;74.366;2022-07-29T06:14:19;98058.41;;;33.44;65.98
31225;BME280;17847;31.524;74.366;2022-07-29T06:17:08;98058.06;;;33.49;66.03
31225;BME280;17847;31.524;74.366;2022-07-29T06:20:04;98048.63;;;33.61;65.39
31225;BME280;17847;31.524;74.366;2022-07-29T06:22:48;98045.44;;;33.59;64.92
31225;BME280;17847;31.524;74.366;2022-07-29T06:25:37;98050.69;;;33.26;66.33
31225;BME280;17847;31.524;74.366;2022-07-29T06:28:20;98051.19;;;33.77;65.54
31225;BME280;17847;31.524;74.366;2022-07-29T06:31:16;98043.91;;;33.65;65.46
31225;BME280;17847;31.524;74.366;2022-07-29T06:33:51;98050.38;;;34.24;64.03
31225;BME280;17847;31.524;74.366;2022-07-29T06:36:40;98035.34;;;33.84;65.15
31225;BME280;17847;31.524;74.366;2022-07-29T06:39:29;98045.78;;;33.98;65.15
31225;BME280;17847;31.524;74.366;2022-07-29T06:42:12;98044.44;;;33.78;65.19
31225;BME280;17847;31.524;74.366;2022-07-29T06:45:02;98041.91;;;34.13;66.13
31225;BME280;17847;31.524;74.366;2022-07-29T06:47:44;98042.97;;;33.94;64.93
31225;BME280;17847;31.524;74.366;2022-07-29T06:50:33;98042.53;;;33.89;62.93
31225;BME280;17847;31.524;74.366;2022-07-29T06:53:15;98043.81;;;34.02;64.28
31225;BME280;17847;31.524;74.366;2022-07-29T06:56:05;98042.00;;;33.72;64.21
31225;BME280;17847;31.524;74.366;2022-07-29T06:58:49;98030.56;;;33.85;64.09
31225;BME280;17847;31.524;74.366;2022-07-29T07:01:40;98030.88;;;33.31;64.10
31225;BME280;17847;31.524;74.366;2022-07-29T07:04:22;98024.94;;;33.78;64.10
31225;BME280;17847;31.524;74.366;2022-07-29T07:07:18;98025.44;;;33.46;64.39
31225;BME280;17847;31.524;74.366;2022-07-29T07:09:53;98018.22;;;33.79;65.19
31225;BME280;17847;31.524;74.366;2022-07-29T07:12:49;98013.09;;;33.91;64.75
31225;BME280;17847;31.524;74.366;2022-07-29T07:15:31;98007.09;;;33.86;64.24
31225;BME280;17847;31.524;74.366;2022-07-29T07:18:27;98010.78;;;33.49;64.49
31225;BME280;17847;31.524;74.366;2022-07-29T07:21:23;98003.47;;;33.33;66.16
31225;BME280;17847;31.524;74.366;2022-07-29T07:24:06;98002.31;;;33.34;66.36
31225;BME280;17847;31.524;74.366;2022-07-29T07:26:55;97998.97;;;32.84;67.73
31225;BME280;17847;31.524;74.366;2022-07-29T07:29:30;97993.38;;;33.14;68.32
31225;BME280;17847;31.524;74.366;2022-07-29T07:32:29;97990.84;;;33.02;67.77
31225;BME280;17847;31.524;74.366;2022-07-29T07:35:06;97986.69;;;33.19;67.55
31225;BME280;17847;31.524;74.366;2022-07-29T07:38:02;97988.94;;;33.10;66.91
31225;BME280;17847;31.524;74.366;2022-07-29T07:40:37;97989.22;;;33.01;68.21
31225;BME280;17847;31.524;74.366;2022-07-29T07:43:34;97981.34;;;33.07;68.89
31225;BME280;17847;31.524;74.366;2022-07-29T07:46:29;97967.75;;;32.61;69.39
31225;BME280;17847;31.524;74.366;2022-07-29T07:49:12;97964.72;;;32.39;69.96
31225;BME280;17847;31.524;74.366;2022-07-29T07:52:01;97965.53;;;32.77;70.90
31225;BME280;17847;31.524;74.366;2022-07-29T07:54:44;97954.53;;;32.54;72.78
31225;BME280;17847;31.524;74.366;2022-07-29T07:57:32;97949.53;;;32.33;72.86
31225;BME280;17847;31.524;74.366;2022-07-29T08:00:16;97938.75;;;31.71;72.92
31225;BME280;17847;31.524;74.366;2022-07-29T08:03:05;97937.84;;;31.90;71.09
31225;BME280;17847;31.524;74.366;2022-07-29T08:05:49;97929.03;;;31.84;72.37
31225;BME280;17847;31.524;74.366;2022-07-29T08:08:38;97921.75;;;32.33;71.31
31225;BME280;17847;31.524;74.366;2022-07-29T08:11:20;97924.78;;;32.51;69.93
31225;BME280;17847;31.524;74.366;2022-07-29T08:14:17;97925.25;;;32.97;68.99
31225;BME280;17847;31.524;74.366;2022-07-29T08:17:06;97924.81;;;32.92;69.01
31225;BME280;17847;31.524;74.366;2022-07-29T08:20:01;97908.25;;;33.03;68.01
31225;BME280;17847;31.524;74.366;2022-07-29T08:22:56;97915.16;;;32.78;67.40
31225;BME280;17847;31.524;74.366;2022-07-29T08:25:37;97894.69;;;32.97;67.87
31225;BME280;17847;31.524;74.366;2022-07-29T08:28:30;97888.41;;;33.04;67.99
31225;BME280;17847;31.524;74.366;2022-07-29T08:31:05;97878.00;;;32.97;67.75
31225;BME280;17847;31.524;74.366;2022-07-29T08:34:01;97878.34;;;32.51;69.23
31225;BME280;17847;31.524;74.366;2022-07-29T08:36:37;97886.47;;;32.67;69.38
31225;BME280;17847;31.524;74.366;2022-07-29T08:39:33;97885.75;;;31.76;71.19
31225;BME280;17847;31.524;74.366;2022-07-29T08:42:15;97890.16;;;31.80;72.96
31225;BME280;17847;31.524;74.366;2022-07-29T08:45:05;97883.47;;;32.15;74.54
31225;BME280;17847;31.524;74.366;2022-07-29T08:47:48;97879.47;;;31.83;74.87
31225;BME280;17847;31.524;74.366;2022-07-29T08:50:30;97881.78;;;31.00;76.37
31225;BME280;17847;31.524;74.366;2022-07-29T08:53:19;97884.47;;;31.20;77.40
31225;BME280;17847;31.524;74.366;2022-07-29T08:56:01;97886.69;;;31.11;78.62
31225;BME280;17847;31.524;74.366;2022-07-29T08:58:58;97908.69;;;30.57;79.84
31225;BME280;17847;31.524;74.366;2022-07-29T09:01:38;97924.06;;;30.55;79.32
31225;BME280;17847;31.524;74.366;2022-07-29T09:04:34;97929.06;;;30.10;81.59
31225;BME280;17847;31.524;74.366;2022-07-29T09:07:15;97927.47;;;29.74;81.39
31225;BME280;17847;31.524;74.366;2022-07-29T09:10:14;97910.34;;;29.68;83.11
31225;BME280;17847;31.524;74.366;2022-07-29T09:12:56;97900.81;;;29.50;83.15
31225;BME280;17847;31.524;74.366;2022-07-29T09:15:45;97885.41;;;29.33;83.65
31225;BME280;17847;31.524;74.366;2022-07-29T09:18:47;97879.28;;;29.39;83.27
31225;BME280;17847;31.524;74.366;2022-07-29T09:21:43;97871.41;;;29.41;83.50
31225;BME280;17847;31.524;74.366;2022-07-29T09:24:47;97871.19;;;29.50;84.15
31225;BME280;17847;31.524;74.366;2022-07-29T09:27:24;97867.53;;;29.62;83.50
31225;BME280;17847;31.524;74.366;2022-07-29T09:30:21;97867.16;;;29.63;83.35
31225;BME280;17847;31.524;74.366;2022-07-29T09:33:05;97857.00;;;29.67;82.96
31225;BME280;17847;31.524;74.366;2022-07-29T09:36:05;97850.91;;;29.42;82.35
31225;BME280;17847;31.524;74.366;2022-07-29T09:38:41;97839.78;;;29.39;82.73
31225;BME280;17847;31.524;74.366;2022-07-29T09:42:04;97834.13;;;29.71;82.78
31225;BME280;17847;31.524;74.366;2022-07-29T09:44:43;97837.03;;;29.58;82.91
31225;BME280;17847;31.524;74.366;2022-07-29T09:47:47;97835.84;;;29.40;83.76
31225;BME280;17847;31.524;74.366;2022-07-29T09:50:40;97830.78;;;29.61;83.77
31225;BME280;17847;31.524;74.366;2022-07-29T09:53:37;97838.72;;;29.63;84.20
31225;BME280;17847;31.524;74.366;2022-07-29T09:56:39;97847.38;;;29.61;84.00
31225;BME280;17847;31.524;74.366;2022-07-29T09:59:34;97852.44;;;29.40;83.77
31225;BME280;17847;31.524;74.366;2022-07-29T10:02:31;97854.34;;;29.55;83.17
31225;BME280;17847;31.524;74.366;2022-07-29T10:05:27;97843.53;;;29.66;82.79
31225;BME280;17847;31.524;74.366;2022-07-29T10:08:10;97826.44;;;29.44;82.43
31225;BME280;17847;31.524;74.366;2022-07-29T10:11:16;97815.09;;;29.30;82.56
31225;BME280;17847;31.524;74.366;2022-07-29T10:14:19;97815.53;;;29.32;82.45
31225;BME280;17847;31.524;74.366;2022-07-29T10:17:09;97815.56;;;29.52;82.68
31225;BME280;17847;31.524;74.366;2022-07-29T10:19:59;97822.88;;;29.60;82.69
31225;BME280;17847;31.524;74.366;2022-07-29T10:22:56;97833.75;;;29.53;82.85
31225;BME280;17847;31.524;74.366;2022-07-29T10:25:52;97832.72;;;29.41;83.72
31225;BME280;17847;31.524;74.366;2022-07-29T10:28:27;97838.44;;;29.33;84.20
31225;BME280;17847;31.524;74.366;2022-07-29T10:31:29;97831.94;;;29.41;84.64
31225;BME280;17847;31.524;74.366;2022-07-29T10:34:50;97819.41;;;29.47;83.15
31225;BME280;17847;31.524;74.366;2022-07-29T10:44:23;97802.53;;;29.52;83.22
31225;BME280;17847;31.524;74.366;2022-07-29T10:47:07;97789.81;;;29.67;83.43
31225;BME280;17847;31.524;74.366;2022-07-29T10:50:04;97795.22;;;29.60;81.91
31225;BME280;17847;31.524;74.366;2022-07-29T10:53:07;97805.88;;;29.61;83.06
31225;BME280;17847;31.524;74.366;2022-07-29T10:55:56;97814.63;;;29.79;82.80
31225;BME280;17847;31.524;74.366;2022-07-29T10:58:39;97816.31;;;29.68;81.91
31225;BME280;17847;31.524;74.366;2022-07-29T11:01:37;97809.31;;;29.55;82.49
31225;BME280;17847;31.524;74.366;2022-07-29T11:05:20;97794.84;;;29.61;82.86
31225;BME280;17847;31.524;74.366;2022-07-29T11:14:09;97783.94;;;29.88;82.48
31225;BME280;17847;31.524;74.366;2022-07-29T11:17:05;97789.41;;;29.84;82.42
31225;BME280;17847;31.524;74.366;2022-07-29T11:23:34;97781.91;;;30.04;81.78
31225;BME280;17847;31.524;74.366;2022-07-29T11:26:21;97779.66;;;30.10;80.36
31225;BME280;17847;31.524;74.366;2022-07-29T11:29:20;97785.19;;;30.10;81.32
31225;BME280;17847;31.524;74.366;2022-07-29T11:32:14;97776.44;;;30.08;81.48
31225;BME280;17847;31.524;74.366;2022-07-29T11:35:19;97773.31;;;30.10;81.18
31225;BME280;17847;31.524;74.366;2022-07-29T11:38:39;97773.81;;;30.15;80.34
31225;BME280;17847;31.524;74.366;2022-07-29T11:41:35;97764.91;;;30.25;81.33
31225;BME280;17847;31.524;74.366;2022-07-29T11:44:12;97770.31;;;30.18;81.64
31225;BME280;17847;31.524;74.366;2022-07-29T11:47:08;97760.94;;;30.26;81.45
31225;BME280;17847;31.524;74.366;2022-07-29T11:49:45;97767.50;;;30.38;81.44
31225;BME280;17847;31.524;74.366;2022-07-29T11:52:45;97768.13;;;30.51;81.07
31225;BME280;17847;31.524;74.366;2022-07-29T11:55:23;97764.69;;;30.57;80.44
31225;BME280;17847;31.524;74.366;2022-07-29T11:58:31;97763.72;;;30.26;80.21
31225;BME280;17847;31.524;74.366;2022-07-29T12:01:06;97762.97;;;30.06;80.56
31225;BME280;17847;31.524;74.366;2022-07-29T12:04:03;97767.66;;;30.45;80.22
31225;BME280;17847;31.524;74.366;2022-07-29T12:06:39;97765.56;;;30.61;80.29
31225;BME280;17847;31.524;74.366;2022-07-29T12:09:36;97770.41;;;30.68;80.13
31225;BME280;17847;31.524;74.366;2022-07-29T12:12:19;97771.09;;;30.61;79.43
31225;BME280;17847;31.524;74.366;2022-07-29T12:15:17;97773.88;;;30.61;79.53
31225;BME280;17847;31.524;74.366;2022-07-29T12:17:55;97773.59;;;30.47;79.90
31225;BME280;17847;31.524;74.366;2022-07-29T12:20:58;97769.53;;;30.64;79.92
31225;BME280;17847;31.524;74.366;2022-07-29T12:23:55;97764.06;;;30.68;80.19
31225;BME280;17847;31.524;74.366;2022-07-29T12:26:54;97759.75;;;30.70;79.71
31225;BME280;17847;31.524;74.366;2022-07-29T12:29:36;97753.09;;;29.86;83.08
31225;BME280;17847;31.524;74.366;2022-07-29T12:32:36;97756.56;;;30.45;81.66
31225;BME280;17847;31.524;74.366;2022-07-29T12:35:19;97760.31;;;30.56;80.68
31225;BME280;17847;31.524;74.366;2022-07-29T12:38:15;97760.19;;;30.49;80.15
31225;BME280;17847;31.524;74.366;2022-07-29T12:40:57;97772.78;;;30.23;81.19
31225;BME280;17847;31.524;74.366;2022-07-29T12:43:54;97778.44;;;30.31;81.19
31225;BME280;17847;31.524;74.366;2022-07-29T12:46:36;97785.25;;;30.14;81.05
31225;BME280;17847;31.524;74.366;2022-07-29T12:49:28;97791.13;;;30.32;80.68
31225;BME280;17847;31.524;74.366;2022-07-29T12:52:44;97797.66;;;30.00;81.49
31225;BME280;17847;31.524;74.366;2022-07-29T12:55:44;97800.09;;;30.05;81.24
31225;BME280;17847;31.524;74.366;2022-07-29T12:58:40;97798.38;;;30.40;81.13
31225;BME280;17847;31.524;74.366;2022-07-29T13:01:36;97796.50;;;30.24;79.93
31225;BME280;17847;31.524;74.366;2022-07-29T13:04:29;97788.47;;;29.96;80.90
31225;BME280;17847;31.524;74.366;2022-07-29T13:07:24;97785.31;;;30.17;80.69
31225;BME280;17847;31.524;74.366;2022-07-29T13:10:28;97783.84;;;29.65;81.12
31225;BME280;17847;31.524;74.366;2022-07-29T13:13:30;97787.44;;;30.04;80.87
31225;BME280;17847;31.524;74.366;2022-07-29T13:16:07;97801.75;;;29.71;81.09
31225;BME280;17847;31.524;74.366;2022-07-29T13:19:05;97797.28;;;30.02;81.48
31225;BME280;17847;31.524;74.366;2022-07-29T13:21:41;97807.59;;;29.66;82.26
31225;BME280;17847;31.524;74.366;2022-07-29T13:24:53;97814.44;;;30.11;81.37
31225;BME280;17847;31.524;74.366;2022-07-29T13:27:31;97813.78;;;30.18;80.42
31225;BME280;17847;31.524;74.366;2022-07-29T13:30:31;97823.50;;;30.08;80.41
31225;BME280;17847;31.524;74.366;2022-07-29T13:33:06;97828.66;;;30.10;81.09
31225;BME280;17847;31.524;74.366;2022-07-29T13:36:02;97834.13;;;30.06;81.10
31225;BME280;17847;31.524;74.366;2022-07-29T13:39:03;97827.75;;;30.05;80.34
31225;BME280;17847;31.524;74.366;2022-07-29T13:42:12;97831.19;;;30.18;80.56
31225;BME280;17847;31.524;74.366;2022-07-29T13:45:11;97837.25;;;30.04;79.84
31225;BME280;17847;31.524;74.366;2022-07-29T13:48:28;97840.81;;;30.05;80.65
31225;BME280;17847;31.524;74.366;2022-07-29T13:51:23;97833.38;;;29.90;80.11
31225;BME280;17847;31.524;74.366;2022-07-29T13:54:39;97831.91;;;29.76;81.22
31225;BME280;17847;31.524;74.366;2022-07-29T13:57:35;97817.59;;;29.35;81.28
31225;BME280;17847;31.524;74.366;2022-07-29T14:00:51;97805.69;;;29.51;80.37
31225;BME280;17847;31.524;74.366;2022-07-29T14:03:47;97802.34;;;29.61;80.51
31225;BME280;17847;31.524;74.366;2022-07-29T14:07:02;97798.53;;;29.69;81.10
31225;BME280;17847;31.524;74.366;2022-07-29T14:10:10;97799.28;;;29.66;80.70
31225;BME280;17847;31.524;74.366;2022-07-29T14:13:26;97799.06;;;29.55;81.05
31225;BME280;17847;31.524;74.366;2022-07-29T14:16:21;97793.16;;;29.37;81.33
31225;BME280;17847;31.524;74.366;2022-07-29T14:19:43;97785.06;;;29.48;82.13
31225;BME280;17847;31.524;74.366;2022-07-29T14:22:45;97796.72;;;29.38;81.38
31225;BME280;17847;31.524;74.366;2022-07-29T14:26:00;97790.78;;;29.20;82.01
31225;BME280;17847;31.524;74.366;2022-07-29T14:29:02;97784.50;;;29.39;82.11
31225;BME280;17847;31.524;74.366;2022-07-29T14:31:57;97791.97;;;29.38;81.61
31225;BME280;17847;31.524;74.366;2022-07-29T14:34:40;97793.69;;;29.27;81.49
31225;BME280;17847;31.524;74.366;2022-07-29T14:37:30;97801.09;;;29.39;82.45
31225;BME280;17847;31.524;74.366;2022-07-29T14:40:13;97797.94;;;29.40;82.42
31225;BME280;17847;31.524;74.366;2022-07-29T14:43:02;97819.59;;;29.54;81.49
31225;BME280;17847;31.524;74.366;2022-07-29T14:45:44;97816.75;;;29.51;82.14
31225;BME280;17847;31.524;74.366;2022-07-29T14:48:41;97825.91;;;29.55;82.25
31225;BME280;17847;31.524;74.366;2022-07-29T14:51:23;97827.06;;;29.54;82.25
31225;BME280;17847;31.524;74.366;2022-07-29T14:54:20;97828.66;;;29.55;81.76
31225;BME280;17847;31.524;74.366;2022-07-29T14:57:02;97835.25;;;29.50;82.45
31225;BME280;17847;31.524;74.366;2022-07-29T14:59:51;97836.28;;;29.42;82.53
31225;BME280;17847;31.524;74.366;2022-07-29T15:02:34;97835.75;;;29.36;82.25
31225;BME280;17847;31.524;74.366;2022-07-29T15:05:41;97846.97;;;29.43;82.84
31225;BME280;17847;31.524;74.366;2022-07-29T15:08:23;97842.34;;;29.47;82.11
31225;BME280;17847;31.524;74.366;2022-07-29T15:11:13;97844.66;;;29.45;82.56
31225;BME280;17847;31.524;74.366;2022-07-29T15:13:55;97838.84;;;29.51;82.04
31225;BME280;17847;31.524;74.366;2022-07-29T15:16:44;97839.66;;;29.51;81.86
31225;BME280;17847;31.524;74.366;2022-07-29T15:19:26;97839.28;;;29.53;81.92
31225;BME280;17847;31.524;74.366;2022-07-29T15:22:15;97851.94;;;29.54;81.81
31225;BME280;17847;31.524;74.366;2022-07-29T15:25:10;97850.13;;;29.61;82.67
31225;BME280;17847;31.524;74.366;2022-07-29T15:27:51;97853.28;;;29.60;82.87
31225;BME280;17847;31.524;74.366;2022-07-29T15:30:41;97861.72;;;29.67;81.77
31225;BME280;17847;31.524;74.366;2022-07-29T15:33:22;97880.34;;;29.70;82.42